首页
METAR-TAF:

METAR-TAF

机场 :

Offutt Air Force Base

奥马哈, 內布拉斯加州, 美国

纬度: 41-07N, 经度: 095-54W, 海拔: 319米

当前天气观测

该预报发布于35分钟前的04:55 UTC
风速8节,风向
温度 31°C
湿度 55%
气压 1006 hPa
能見度: 16.1公里
天空无云

METAR: KOFF 250455Z AUTO 19008KT 10SM CLR 31/21 A2970 RMK AO2 SLP046 T03080210 $

时间: 00:30 (05:30 UTC)

预报

该预报发布于3小时和30分钟前的02:00 UTC
预报有效从25日的 02点(UTC)到 26日的 08点(UTC)
风速9节,风向南转南东
能见度10公里或以上
散云层高于25000英尺
成为
从 25日的 03点(UTC)到 25日的 04点(UTC)
风速9节,风向南转西南
能见度10公里或以上
散云层高于6000英尺
多云层高于15000英尺
多云层高于25000英尺
成为
从 25日的 09点(UTC)到 25日的 10点(UTC)
风速9节,风向
能見度: 2514
散云层高于15000英尺
散云层高于25000英尺
成为
从 25日的 23点(UTC)到 25日的 24点(UTC)
风速9节,风向东转东北
能見度: 8000
多云层高于6000英尺, 积雨云.
多云层高于12000英尺
阴天层高于25000英尺
雷暴, 小雨
短暂存在
从 26日的 00点(UTC)到 26日的 04点(UTC)
风速30节,风向多变,有时为50节阵风
能見度: 4800
阴天层高于6000英尺, 积雨云.
雷暴, 小雨, 冰雹
成为
从 26日的 03点(UTC)到 26日的 04点(UTC)
风速9节,风向东转东北
能見度: 8000
散云层高于3000英尺
多云层高于6000英尺
小阵雨,

TAF: KOFF 250200Z 2502/2608 15009KT 9999 SCT250 QNH2966INS BECMG 2503/2504 21009KT 9999 SCT060 BKN150 BKN250 WS010/22040KT QNH2968INS BECMG 2509/2510 22007KT 9999 SCT150 SCT250 QNH2964INS WND 18009KT AFT 2514 BECMG 2523/2524 06009KT 8000 -TSRA BKN060CB BKN120 OVC250 QNH2963INS TEMPO 2600/2604 VRB30G50KT 4800 -TSRAGR OVC060CB BECMG 2603/2604 06009KT 8000 -SHRA SCT030 BKN060 QNH2974INS TX26/2522Z TN23/2510Z

超过4000个机场的气象观测和天气预报(METAR&TAF报告)。

可查询的气象台以黄色和红色小点在地图上表示。

将鼠标移到小点上方,可查看气象台名称。

然后点击查看天气观测和预报。

如需切换地图:点击带黑十字的绿色按钮放大地图;点击带横线的绿色按钮缩小地图;或者点击绿色箭头查看邻近地区的地图。


METAR-TAF: